Time;durP1;ratioP1;P1;durP2;ratioP2;P2;SDS_P1;SDS_P2;PMS_P1;PMS_P2;Temp;Humidity;BMP_temperature;BMP_pressure;BME280_temperature;BME280_humidity;BME280_pressure;Samples;Min_cycle;Max_cycle;Signal;HPM_P1;HPM_P2
2023/05/01 00:01:46;;;;;;;27.37;12.17;;;10.60;95.40;;;;;;5087933;27;21212;-60
2023/05/01 00:04:15;;;;;;;24.37;15.90;;;10.60;95.60;;;;;;5074620;28;20490;-60
2023/05/01 00:06:42;;;;;;;21.87;14.80;;;10.60;95.20;;;;;;5096958;27;20857;-61
2023/05/01 00:09:09;;;;;;;21.40;13.90;;;10.60;95.40;;;;;;5060061;28;20486;-60
2023/05/01 00:11:36;;;;;;;28.77;16.00;;;10.90;95.80;;;;;;5075660;27;21327;-60
2023/05/01 00:14:02;;;;;;;26.57;14.57;;;10.50;95.60;;;;;;5086943;27;20470;-60
2023/05/01 00:16:29;;;;;;;29.53;17.40;;;10.50;95.80;;;;;;5097718;27;20503;-60
2023/05/01 00:18:56;;;;;;;17.27;11.40;;;10.40;95.70;;;;;;5103856;27;20511;-61
2023/05/01 00:21:24;;;;;;;24.53;13.97;;;10.40;95.50;;;;;;5089184;27;20494;-61
2023/05/01 00:23:50;;;;;;;21.00;12.20;;;10.40;95.70;;;;;;5068395;28;20479;-61
2023/05/01 00:26:17;;;;;;;22.27;14.37;;;10.30;95.90;;;;;;5087984;27;20481;-60
2023/05/01 00:28:44;;;;;;;22.03;13.17;;;10.30;96.00;;;;;;5097212;27;20469;-61
2023/05/01 00:31:11;;;;;;;22.40;11.73;;;10.30;95.80;;;;;;5070149;27;20968;-61
2023/05/01 00:33:38;;;;;;;21.63;12.63;;;10.30;95.70;;;;;;5093572;27;20497;-61
2023/05/01 00:36:05;;;;;;;21.87;15.07;;;10.30;95.40;;;;;;5078774;27;20476;-61
2023/05/01 00:38:33;;;;;;;35.57;15.20;;;10.20;95.40;;;;;;5080442;27;21457;-61
2023/05/01 00:40:59;;;;;;;15.80;12.20;;;10.20;95.20;;;;;;5077134;27;20996;-61
2023/05/01 00:43:26;;;;;;;30.30;18.20;;;10.20;95.50;;;;;;5083462;27;21008;-60
2023/05/01 00:45:52;;;;;;;27.40;11.83;;;10.20;95.30;;;;;;5070100;28;21302;-61
2023/05/01 00:48:19;;;;;;;22.73;15.00;;;10.20;95.30;;;;;;5072418;27;20931;-61
2023/05/01 00:50:47;;;;;;;13.67;10.70;;;10.20;95.10;;;;;;5089974;27;20845;-61
2023/05/01 00:53:14;;;;;;;26.73;12.30;;;10.10;95.50;;;;;;5079675;27;20493;-60
2023/05/01 00:55:42;;;;;;;23.73;14.80;;;10.10;95.50;;;;;;5095317;27;20479;-60
2023/05/01 00:58:10;;;;;;;21.93;14.17;;;10.00;95.40;;;;;;5051978;28;20580;-60
2023/05/01 01:00:37;;;;;;;22.20;11.87;;;9.90;96.30;;;;;;5082753;27;20462;-60
2023/05/01 01:03:04;;;;;;;21.87;14.03;;;9.80;96.50;;;;;;5065764;27;20561;-60
2023/05/01 01:05:35;;;;;;;29.03;17.53;;;9.80;96.50;;;;;;5098493;27;20467;-60
2023/05/01 01:08:10;;;;;;;18.90;13.50;;;9.80;96.40;;;;;;5071117;28;21587;-60
2023/05/01 01:10:47;;;;;;;24.40;14.80;;;9.90;96.40;;;;;;5069278;28;20696;-60
2023/05/01 01:13:20;;;;;;;18.93;12.57;;;9.90;96.30;;;;;;5061399;28;20482;-60
2023/05/01 01:15:53;;;;;;;19.00;12.40;;;9.90;96.40;;;;;;5065496;28;20485;-60
2023/05/01 01:18:31;;;;;;;25.07;14.27;;;9.90;96.50;;;;;;5067190;28;21379;-60
2023/05/01 01:21:05;;;;;;;29.60;16.37;;;9.90;96.50;;;;;;5076761;27;21112;-60
2023/05/01 01:24:10;;;;;;;33.67;16.83;;;9.90;96.40;;;;;;5088731;27;20529;-60
2023/05/01 01:27:01;;;;;;;19.40;12.33;;;9.90;96.50;;;;;;5074772;28;20840;-59
2023/05/01 01:30:03;;;;;;;25.07;14.33;;;9.90;96.40;;;;;;5060004;27;20589;-61
2023/05/01 01:33:00;;;;;;;27.73;15.60;;;9.90;96.40;;;;;;5093295;27;20481;-60
2023/05/01 01:35:30;;;;;;;35.10;18.33;;;9.70;96.70;;;;;;5075508;28;21839;-61
2023/05/01 01:38:02;;;;;;;21.27;12.00;;;9.70;96.40;;;;;;5074795;28;20584;-61
2023/05/01 01:40:34;;;;;;;29.13;14.83;;;9.80;96.50;;;;;;5074004;28;21030;-60
2023/05/01 01:43:06;;;;;;;19.90;12.53;;;9.80;96.60;;;;;;5074149;28;20478;-61
2023/05/01 01:45:38;;;;;;;26.70;12.97;;;9.80;96.80;;;;;;5070608;28;20719;-60
2023/05/01 01:48:06;;;;;;;19.27;12.70;;;9.80;96.80;;;;;;5074667;28;20573;-61
2023/05/01 01:50:37;;;;;;;25.77;15.87;;;9.90;96.70;;;;;;5072585;28;20478;-61
2023/05/01 01:53:06;;;;;;;16.80;11.20;;;9.80;96.60;;;;;;5066167;28;20469;-61
2023/05/01 01:55:36;;;;;;;24.33;15.43;;;9.80;96.50;;;;;;5080824;27;20473;-61
2023/05/01 01:58:03;;;;;;;19.57;12.50;;;9.80;96.50;;;;;;5085418;27;20989;-60
2023/05/01 02:00:31;;;;;;;26.70;12.53;;;9.80;96.70;;;;;;5070507;27;20479;-60
2023/05/01 02:02:59;;;;;;;14.07;10.07;;;9.80;97.00;;;;;;5080684;28;20491;-60
2023/05/01 02:05:27;;;;;;;29.27;17.40;;;9.70;96.90;;;;;;5065601;28;20481;-61
2023/05/01 02:07:57;;;;;;;15.13;9.20;;;9.70;96.80;;;;;;5094283;27;20486;-60
2023/05/01 02:10:25;;;;;;;26.03;16.40;;;9.80;96.60;;;;;;5084422;27;20495;-60
2023/05/01 02:12:55;;;;;;;13.90;11.00;;;9.80;96.50;;;;;;5067542;27;21008;-60
2023/05/01 02:15:23;;;;;;;22.17;14.77;;;9.70;96.70;;;;;;5094931;27;20840;-61
2023/05/01 02:17:51;;;;;;;17.03;11.07;;;9.80;96.90;;;;;;5097774;27;20700;-61
2023/05/01 02:20:20;;;;;;;22.27;12.57;;;9.80;96.90;;;;;;5097319;27;20484;-60
2023/05/01 02:22:48;;;;;;;15.53;11.10;;;9.70;96.70;;;;;;5075319;28;20474;-61
2023/05/01 02:25:16;;;;;;;18.37;12.23;;;9.70;96.70;;;;;;5101182;27;20481;-60
2023/05/01 02:27:47;;;;;;;12.90;10.07;;;9.70;96.70;;;;;;5073216;28;20657;-61
2023/05/01 02:30:13;;;;;;;18.00;12.00;;;9.70;96.90;;;;;;5096286;27;21369;-61
2023/05/01 02:32:40;;;;;;;17.70;12.30;;;9.70;96.80;;;;;;5078347;27;20879;-61
2023/05/01 02:35:07;;;;;;;17.13;10.03;;;9.70;96.90;;;;;;5071806;28;20565;-61
2023/05/01 02:37:34;;;;;;;20.63;13.13;;;9.70;96.90;;;;;;5075765;28;20478;-60
2023/05/01 02:40:02;;;;;;;16.73;11.93;;;9.70;96.80;;;;;;5076262;27;20481;-61
2023/05/01 02:42:32;;;;;;;24.43;14.40;;;9.70;96.70;;;;;;5087558;27;20561;-61
2023/05/01 02:45:03;;;;;;;17.40;12.13;;;9.70;96.80;;;;;;5069244;28;20478;-60
2023/05/01 02:47:32;;;;;;;45.90;18.00;;;9.70;96.80;;;;;;5077075;28;20557;-60
2023/05/01 02:50:00;;;;;;;18.30;11.90;;;9.70;97.10;;;;;;5068920;27;20505;-60
2023/05/01 02:52:27;;;;;;;27.07;16.37;;;9.70;97.30;;;;;;5088633;27;20531;-60
2023/05/01 02:54:55;;;;;;;19.40;12.70;;;9.70;97.60;;;;;;5075617;28;20474;-60
2023/05/01 02:57:22;;;;;;;26.83;16.00;;;9.80;97.90;;;;;;5071702;27;20940;-60
2023/05/01 02:59:50;;;;;;;19.10;12.43;;;9.80;98.00;;;;;;5096444;27;20512;-61
2023/05/01 03:02:18;;;;;;;20.33;13.57;;;9.90;98.10;;;;;;5073766;28;20481;-60
2023/05/01 03:04:44;;;;;;;23.37;14.97;;;9.90;98.20;;;;;;5064375;27;20484;-61
2023/05/01 03:07:11;;;;;;;21.90;13.80;;;10.00;97.60;;;;;;5098398;27;20485;-61
2023/05/01 03:09:38;;;;;;;29.63;16.67;;;10.00;97.80;;;;;;5089473;27;20472;-60
2023/05/01 03:12:05;;;;;;;23.83;14.00;;;10.10;97.90;;;;;;5093286;27;20474;-61
2023/05/01 03:14:32;;;;;;;33.07;18.53;;;10.10;98.20;;;;;;5075176;27;20487;-61
2023/05/01 03:17:00;;;;;;;20.50;12.87;;;10.00;98.40;;;;;;5092583;27;20550;-61
2023/05/01 03:19:27;;;;;;;39.80;20.30;;;10.00;98.60;;;;;;5096335;27;20485;-61
2023/05/01 03:21:54;;;;;;;20.70;13.70;;;10.00;98.90;;;;;;5086680;27;20487;-61
2023/05/01 03:24:21;;;;;;;38.73;20.10;;;9.90;99.80;;;;;;5120755;27;21212;-60
2023/05/01 03:26:48;;;;;;;24.60;14.87;;;9.90;99.90;;;;;;5081385;28;20494;-61
2023/05/01 03:29:15;;;;;;;33.00;17.23;;;9.90;99.90;;;;;;5073946;28;20600;-61
2023/05/01 03:31:41;;;;;;;22.20;13.50;;;9.90;99.90;;;;;;5100017;27;20489;-61
2023/05/01 03:34:10;;;;;;;27.80;14.60;;;9.90;99.90;;;;;;5083731;28;20475;-60
2023/05/01 03:36:36;;;;;;;30.27;14.77;;;9.80;99.90;;;;;;5080137;28;20682;-60
2023/05/01 03:39:03;;;;;;;33.10;14.87;;;9.90;99.90;;;;;;5074529;28;20478;-61
2023/05/01 03:41:30;;;;;;;45.93;18.60;;;9.80;99.90;;;;;;5091070;28;20479;-60
2023/05/01 03:43:57;;;;;;;25.87;13.50;;;9.80;99.90;;;;;;5084671;27;20473;-60
2023/05/01 03:46:23;;;;;;;59.70;19.73;;;9.80;99.90;;;;;;5077107;27;20496;-61
2023/05/01 03:48:50;;;;;;;29.67;16.70;;;9.80;99.90;;;;;;5083118;27;20974;-60
2023/05/01 03:51:18;;;;;;;37.47;16.60;;;9.80;99.90;;;;;;5071654;27;20481;-60
2023/05/01 03:53:47;;;;;;;30.00;14.57;;;9.80;99.90;;;;;;5111373;27;20489;-60
2023/05/01 03:56:14;;;;;;;25.90;12.90;;;9.90;99.90;;;;;;5098123;27;20504;-60
2023/05/01 03:58:41;;;;;;;38.90;16.10;;;9.90;99.90;;;;;;5098065;27;20849;-60
2023/05/01 04:01:08;;;;;;;38.77;15.60;;;10.00;99.90;;;;;;5093389;27;20485;-60
2023/05/01 04:03:35;;;;;;;34.83;15.90;;;10.00;99.90;;;;;;5086301;27;20478;-60
2023/05/01 04:06:02;;;;;;;27.97;14.70;;;10.10;99.90;;;;;;5079107;28;21021;-60
2023/05/01 04:08:30;;;;;;;62.03;19.33;;;10.10;99.90;;;;;;5090929;27;20476;-59
2023/05/01 04:10:56;;;;;;;28.27;14.87;;;10.10;99.90;;;;;;5103952;27;20479;-59
2023/05/01 04:13:23;;;;;;;65.67;20.63;;;10.10;99.90;;;;;;5103962;27;20549;-60
2023/05/01 04:15:50;;;;;;;22.37;13.60;;;10.10;99.90;;;;;;5082088;27;20479;-60
2023/05/01 04:18:17;;;;;;;33.63;15.37;;;10.20;99.90;;;;;;5081227;28;20497;-60
2023/05/01 04:20:43;;;;;;;44.20;16.63;;;10.30;99.90;;;;;;5081758;28;20470;-61
2023/05/01 04:23:11;;;;;;;52.37;16.17;;;10.40;99.90;;;;;;5086629;27;20505;-60
2023/05/01 04:25:39;;;;;;;22.20;12.57;;;10.40;99.70;;;;;;5081312;27;20489;-60
2023/05/01 04:28:06;;;;;;;32.33;13.97;;;10.50;99.60;;;;;;5107170;27;20475;-62
2023/05/01 04:30:33;;;;;;;48.43;19.57;;;10.60;99.50;;;;;;5083156;27;20560;-61
2023/05/01 04:33:00;;;;;;;27.07;14.67;;;10.60;99.50;;;;;;5078046;28;20478;-61
2023/05/01 04:35:27;;;;;;;44.53;17.60;;;10.70;99.50;;;;;;5081106;28;20626;-61
2023/05/01 04:37:54;;;;;;;23.30;13.00;;;10.70;99.40;;;;;;5070765;28;20481;-60
2023/05/01 04:40:20;;;;;;;48.03;18.83;;;10.80;99.50;;;;;;5093558;27;20479;-60
2023/05/01 04:42:48;;;;;;;27.10;14.60;;;10.70;99.50;;;;;;5086838;28;20489;-60
2023/05/01 04:45:15;;;;;;;36.23;14.77;;;10.70;99.60;;;;;;5087406;28;20485;-60
2023/05/01 04:47:42;;;;;;;29.23;14.53;;;10.70;99.70;;;;;;5110421;27;20511;-60
2023/05/01 04:50:10;;;;;;;46.17;17.23;;;10.70;99.80;;;;;;5086788;28;20472;-60
2023/05/01 04:52:37;;;;;;;30.70;14.27;;;10.80;99.80;;;;;;5084159;27;20484;-59
2023/05/01 04:55:04;;;;;;;28.57;13.17;;;10.80;99.70;;;;;;5115729;27;20491;-60
2023/05/01 04:57:31;;;;;;;48.77;17.00;;;10.90;99.70;;;;;;5094917;27;20469;-60
2023/05/01 04:59:59;;;;;;;22.87;13.67;;;11.00;99.60;;;;;;5067626;28;20826;-60
2023/05/01 05:02:26;;;;;;;55.57;19.60;;;11.00;99.50;;;;;;5086362;27;20917;-60
2023/05/01 05:04:53;;;;;;;20.93;12.10;;;11.10;99.50;;;;;;5090534;27;20489;-60
2023/05/01 05:07:20;;;;;;;23.70;14.00;;;11.10;99.50;;;;;;5072812;28;20605;-59
2023/05/01 05:09:47;;;;;;;19.30;12.90;;;11.00;99.60;;;;;;5073888;28;20557;-60
2023/05/01 05:12:13;;;;;;;24.47;14.50;;;11.10;99.60;;;;;;5075863;28;20470;-60
2023/05/01 05:14:40;;;;;;;23.87;12.07;;;11.00;99.60;;;;;;5076436;27;20489;-60
2023/05/01 05:17:08;;;;;;;18.63;13.20;;;11.00;99.70;;;;;;5096485;27;20565;-60
2023/05/01 05:19:35;;;;;;;27.60;16.67;;;11.10;99.80;;;;;;5086453;28;20725;-60
2023/05/01 05:22:02;;;;;;;37.53;14.20;;;11.20;99.80;;;;;;5096216;27;20572;-59
2023/05/01 05:24:29;;;;;;;28.67;17.20;;;11.20;99.90;;;;;;5089696;27;20478;-60
2023/05/01 05:26:56;;;;;;;14.27;11.50;;;11.30;99.80;;;;;;5085760;27;20526;-60
2023/05/01 05:29:23;;;;;;;27.07;15.40;;;11.50;99.90;;;;;;5069811;28;20910;-60
2023/05/01 05:31:50;;;;;;;17.30;11.67;;;11.60;99.80;;;;;;5064115;28;20486;-60
2023/05/01 05:34:18;;;;;;;22.30;15.17;;;11.70;99.60;;;;;;5094092;27;20479;-60
2023/05/01 05:36:45;;;;;;;19.03;12.67;;;11.90;99.70;;;;;;5071688;28;20485;-60
2023/05/01 05:39:12;;;;;;;20.87;14.70;;;12.00;99.40;;;;;;5070189;28;20907;-60
2023/05/01 05:41:38;;;;;;;19.13;12.70;;;12.20;99.60;;;;;;5061960;28;20825;-60
2023/05/01 05:44:05;;;;;;;18.50;13.10;;;12.30;99.60;;;;;;5103597;27;20489;-60
2023/05/01 05:46:32;;;;;;;21.60;14.57;;;12.40;99.80;;;;;;5079178;28;20619;-60
2023/05/01 05:48:58;;;;;;;19.30;12.30;;;12.50;99.50;;;;;;5075928;28;20549;-60
2023/05/01 05:51:26;;;;;;;34.23;13.73;;;12.60;99.10;;;;;;5081531;28;20832;-60
2023/05/01 05:53:53;;;;;;;16.73;11.00;;;12.70;99.20;;;;;;5083537;28;20753;-61
2023/05/01 05:56:20;;;;;;;26.23;15.47;;;12.80;99.50;;;;;;5080580;27;21017;-61
2023/05/01 05:58:47;;;;;;;20.80;10.60;;;12.90;99.40;;;;;;5070077;28;20474;-61
2023/05/01 06:01:13;;;;;;;16.07;11.10;;;12.90;99.10;;;;;;5080766;27;20497;-61
2023/05/01 06:03:40;;;;;;;14.67;10.70;;;12.90;99.20;;;;;;5105620;27;20488;-61
2023/05/01 06:06:07;;;;;;;23.93;10.30;;;12.80;98.60;;;;;;5088047;27;20484;-61
2023/05/01 06:08:36;;;;;;;17.40;12.57;;;12.80;98.50;;;;;;5090948;27;20508;-60
2023/05/01 06:11:03;;;;;;;16.10;12.23;;;12.80;98.80;;;;;;5109414;27;20525;-61
2023/05/01 06:13:30;;;;;;;23.73;13.80;;;12.80;98.70;;;;;;5075599;27;20482;-61
2023/05/01 06:15:56;;;;;;;13.30;10.00;;;12.70;98.70;;;;;;5113752;27;20476;-61
2023/05/01 06:18:23;;;;;;;29.23;16.70;;;12.60;98.70;;;;;;5093338;27;20567;-61
2023/05/01 06:20:51;;;;;;;20.53;10.17;;;12.60;99.10;;;;;;5071354;27;20969;-60
2023/05/01 06:23:18;;;;;;;16.00;11.67;;;12.70;99.40;;;;;;5093870;27;20538;-61
2023/05/01 06:25:47;;;;;;;16.03;10.67;;;12.70;99.10;;;;;;5089448;27;21020;-61
2023/05/01 06:28:14;;;;;;;14.13;9.43;;;12.80;99.30;;;;;;5084971;28;20836;-61
2023/05/01 06:30:41;;;;;;;15.47;10.90;;;12.90;99.00;;;;;;5079915;27;20554;-60
2023/05/01 06:33:08;;;;;;;16.50;10.60;;;13.00;98.70;;;;;;5070478;28;21169;-61
2023/05/01 06:35:35;;;;;;;18.93;10.87;;;13.10;98.60;;;;;;5070929;28;20888;-61
2023/05/01 06:38:02;;;;;;;12.53;10.37;;;13.10;98.40;;;;;;5082947;27;20978;-61
2023/05/01 06:40:30;;;;;;;20.83;13.40;;;13.20;98.30;;;;;;5076700;28;20493;-61
2023/05/01 06:42:58;;;;;;;15.57;9.83;;;13.20;98.40;;;;;;5084328;27;20492;-61
2023/05/01 06:45:25;;;;;;;25.80;15.00;;;13.10;98.50;;;;;;5092574;27;20486;-61
2023/05/01 06:47:52;;;;;;;10.70;8.83;;;13.10;98.30;;;;;;5088472;28;20484;-60
2023/05/01 06:50:19;;;;;;;15.60;9.90;;;13.20;98.60;;;;;;5087004;28;21053;-61
2023/05/01 06:52:46;;;;;;;14.50;9.30;;;13.20;98.60;;;;;;5095646;27;20481;-60
2023/05/01 06:55:13;;;;;;;12.90;9.73;;;13.30;98.90;;;;;;5070330;28;20755;-61
2023/05/01 06:57:40;;;;;;;17.43;9.83;;;13.40;98.90;;;;;;5097497;27;20482;-61
2023/05/01 07:00:10;;;;;;;13.33;10.47;;;13.50;99.30;;;;;;5076543;27;21056;-61
2023/05/01 07:02:39;;;;;;;14.70;11.60;;;13.60;98.90;;;;;;5080618;28;20547;-60
2023/05/01 07:05:06;;;;;;;13.23;9.17;;;13.80;98.40;;;;;;5090523;27;20768;-61
2023/05/01 07:07:33;;;;;;;18.50;12.67;;;13.80;98.20;;;;;;5076517;28;20487;-61
2023/05/01 07:09:59;;;;;;;11.90;7.87;;;13.90;98.10;;;;;;5074283;28;20490;-61
2023/05/01 07:12:26;;;;;;;16.93;11.40;;;14.10;98.40;;;;;;5082842;28;20744;-61
2023/05/01 07:14:53;;;;;;;10.73;8.90;;;14.20;98.20;;;;;;5097753;27;20492;-61
2023/05/01 07:17:21;;;;;;;14.40;11.00;;;14.30;98.30;;;;;;5076310;27;20486;-61
2023/05/01 07:19:48;;;;;;;8.37;7.47;;;14.50;97.60;;;;;;5079009;27;20741;-61
2023/05/01 07:22:15;;;;;;;14.50;9.63;;;14.60;97.50;;;;;;5096339;27;20477;-61
2023/05/01 07:24:43;;;;;;;9.60;8.50;;;;;;;;;;5081535;28;20482;-61
2023/05/01 07:27:10;;;;;;;12.93;10.17;;;14.70;97.30;;;;;;5087565;27;20487;-61
2023/05/01 07:29:38;;;;;;;11.70;9.83;;;14.80;97.70;;;;;;5085640;27;20486;-61
2023/05/01 07:32:06;;;;;;;14.20;9.90;;;15.00;97.10;;;;;;5081994;28;20484;-61
2023/05/01 07:34:34;;;;;;;14.80;11.03;;;15.10;97.10;;;;;;5088554;27;20481;-61
2023/05/01 07:37:00;;;;;;;11.47;9.33;;;15.10;97.10;;;;;;5099113;27;20506;-61
2023/05/01 07:39:27;;;;;;;14.97;10.90;;;15.20;96.80;;;;;;5078178;27;20505;-61
2023/05/01 07:41:54;;;;;;;9.30;8.00;;;15.40;96.80;;;;;;5087573;27;20500;-61
2023/05/01 07:44:20;;;;;;;15.10;11.20;;;15.50;97.00;;;;;;5084232;27;20469;-61
2023/05/01 07:46:47;;;;;;;8.80;7.90;;;15.80;97.10;;;;;;5093499;27;21135;-61
2023/05/01 07:49:14;;;;;;;11.10;8.30;;;16.10;97.00;;;;;;5097218;27;20481;-61
2023/05/01 07:51:42;;;;;;;9.10;7.60;;;16.40;96.90;;;;;;5082981;27;20968;-62
2023/05/01 07:54:09;;;;;;;9.17;8.27;;;16.60;95.90;;;;;;5075709;27;20508;-61
2023/05/01 07:56:36;;;;;;;10.10;9.07;;;16.80;94.70;;;;;;5078356;27;20484;-61
2023/05/01 07:59:03;;;;;;;16.17;7.93;;;17.00;95.50;;;;;;5073048;28;20799;-61
2023/05/01 08:01:29;;;;;;;13.43;11.03;;;17.00;94.90;;;;;;5089036;27;20477;-61
2023/05/01 08:03:56;;;;;;;13.70;8.87;;;17.10;94.80;;;;;;5092609;27;20472;-61
2023/05/01 08:06:23;;;;;;;15.63;10.50;;;18.40;94.80;;;;;;5082934;28;20486;-61
2023/05/01 08:08:51;;;;;;;9.00;7.13;;;17.00;93.30;;;;;;5099482;27;20476;-60
2023/05/01 08:11:17;;;;;;;10.83;8.97;;;16.90;92.60;;;;;;5065363;27;20475;-61
2023/05/01 08:13:45;;;;;;;9.57;8.60;;;16.80;93.40;;;;;;5094115;27;20473;-60
2023/05/01 08:16:12;;;;;;;9.37;8.37;;;16.60;92.80;;;;;;5054098;28;20906;-61
2023/05/01 08:18:38;;;;;;;8.70;7.50;;;16.50;92.90;;;;;;5075303;28;20474;-60
2023/05/01 08:21:05;;;;;;;9.43;8.43;;;16.50;93.50;;;;;;5067019;28;20689;-60
2023/05/01 08:23:32;;;;;;;12.63;10.63;;;16.60;94.20;;;;;;5061905;28;20831;-61
2023/05/01 08:26:00;;;;;;;10.93;8.03;;;16.60;94.10;;;;;;5075586;28;20453;-61
2023/05/01 08:28:27;;;;;;;12.50;11.20;;;16.70;94.10;;;;;;5098169;27;21267;-61
2023/05/01 08:30:53;;;;;;;10.60;8.20;;;16.70;93.40;;;;;;5051330;27;20482;-61
2023/05/01 08:33:20;;;;;;;14.70;9.90;;;16.80;93.80;;;;;;5099785;27;20497;-61
2023/05/01 08:35:48;;;;;;;9.20;8.10;;;16.90;94.60;;;;;;5079060;28;20575;-61
2023/05/01 08:38:14;;;;;;;8.90;8.00;;;17.00;93.60;;;;;;5085637;28;20548;-61
2023/05/01 08:40:47;;;;;;;8.30;7.50;;;17.10;94.30;;;;;;5084383;28;20469;-60
2023/05/01 08:43:15;;;;;;;9.83;8.30;;;17.10;93.80;;;;;;5085549;27;21197;-61
2023/05/01 08:45:43;;;;;;;8.57;7.77;;;17.30;93.70;;;;;;5108973;27;20480;-61
2023/05/01 08:48:12;;;;;;;9.13;8.23;;;17.50;93.90;;;;;;5085941;27;20539;-61
2023/05/01 08:50:39;;;;;;;13.07;8.20;;;17.60;93.20;;;;;;5076096;28;20727;-61
2023/05/01 08:53:07;;;;;;;11.60;7.17;;;17.90;93.80;;;;;;5096787;27;20484;-61
2023/05/01 08:55:35;;;;;;;11.40;10.13;;;18.00;93.50;;;;;;5083264;27;20481;-61
2023/05/01 08:58:03;;;;;;;9.97;9.07;;;18.10;93.50;;;;;;5073749;27;20477;-61
2023/05/01 09:00:33;;;;;;;16.17;8.57;;;17.80;91.70;;;;;;5083839;27;20825;-61
2023/05/01 09:03:01;;;;;;;9.33;8.37;;;17.70;91.90;;;;;;5077539;27;20584;-61
2023/05/01 09:05:28;;;;;;;12.87;10.60;;;17.80;92.30;;;;;;5105245;27;20486;-62
2023/05/01 09:07:55;;;;;;;25.70;10.27;;;17.60;91.70;;;;;;5094231;28;20557;-61
2023/05/01 09:10:23;;;;;;;14.50;12.30;;;17.40;91.00;;;;;;5084054;28;21057;-62
2023/05/01 09:12:55;;;;;;;10.70;9.60;;;17.60;93.20;;;;;;5060954;28;20489;-62
2023/05/01 09:15:22;;;;;;;13.40;11.73;;;17.90;93.00;;;;;;5067203;28;20501;-62
2023/05/01 09:17:50;;;;;;;9.13;8.10;;;18.10;93.70;;;;;;5080080;28;20550;-61
2023/05/01 09:20:19;;;;;;;20.43;9.87;;;18.40;92.80;;;;;;5094283;27;20993;-62
2023/05/01 09:22:45;;;;;;;9.20;8.30;;;18.70;92.40;;;;;;5089022;27;20486;-61
2023/05/01 09:25:12;;;;;;;9.67;8.67;;;18.70;91.70;;;;;;5068814;28;20494;-62
2023/05/01 09:27:39;;;;;;;10.93;9.50;;;18.70;91.80;;;;;;5070573;28;21073;-62
2023/05/01 09:30:07;;;;;;;11.73;9.13;;;18.60;91.60;;;;;;5099975;27;20889;-62
2023/05/01 09:32:34;;;;;;;12.00;10.70;;;18.70;91.30;;;;;;5084090;27;20555;-62
2023/05/01 09:35:12;;;;;;;25.10;10.00;;;18.60;91.40;;;;;;5078286;28;20478;-62
2023/05/01 09:37:39;;;;;;;16.70;11.80;;;18.50;92.10;;;;;;5077124;28;20476;-62
2023/05/01 09:40:08;;;;;;;13.70;10.60;;;18.40;91.80;;;;;;5095949;28;20465;-62
2023/05/01 09:42:50;;;;;;;11.10;9.90;;;18.20;91.80;;;;;;5084710;28;20469;-62
2023/05/01 09:45:17;;;;;;;11.53;10.43;;;18.20;92.10;;;;;;5071140;28;20846;-62
2023/05/01 09:47:45;;;;;;;14.23;10.97;;;18.20;92.40;;;;;;5077624;28;20584;-62
2023/05/01 09:50:29;;;;;;;11.03;9.60;;;18.00;92.30;;;;;;5089786;28;20486;-62
2023/05/01 09:52:55;;;;;;;24.03;9.13;;;18.00;91.80;;;;;;5086359;28;20812;-63
2023/05/01 09:55:23;;;;;;;16.53;12.20;;;18.00;91.80;;;;;;5069947;28;20484;-62
2023/05/01 09:57:50;;;;;;;13.17;9.60;;;18.20;91.60;;;;;;5108827;27;20763;-62
2023/05/01 10:00:20;;;;;;;25.50;9.50;;;18.20;92.10;;;;;;5085808;27;20537;-62
2023/05/01 10:02:49;;;;;;;10.47;9.47;;;18.20;91.40;;;;;;5080948;28;20488;-63
2023/05/01 10:05:17;;;;;;;12.00;10.70;;;18.20;92.30;;;;;;5072067;28;20640;-62
2023/05/01 10:07:56;;;;;;;14.90;9.60;;;18.30;92.60;;;;;;5063041;28;20486;-63
2023/05/01 10:10:23;;;;;;;13.43;11.27;;;18.40;91.90;;;;;;5067295;28;20575;-62
2023/05/01 10:12:50;;;;;;;16.70;8.90;;;18.60;91.70;;;;;;5070461;28;20474;-62
2023/05/01 10:15:19;;;;;;;14.37;9.60;;;18.60;91.20;;;;;;5108976;27;21315;-62
2023/05/01 10:17:47;;;;;;;9.70;8.70;;;18.60;91.00;;;;;;5075178;28;20497;-62
2023/05/01 10:20:14;;;;;;;13.43;8.83;;;18.70;91.70;;;;;;5068040;28;21023;-63
2023/05/01 10:22:43;;;;;;;12.20;10.20;;;18.80;90.80;;;;;;5082927;28;20492;-63
2023/05/01 10:25:10;;;;;;;11.13;9.67;;;18.60;90.90;;;;;;5091337;27;20951;-62
2023/05/01 10:27:39;;;;;;;14.90;8.80;;;18.60;91.80;;;;;;5108893;27;20469;-63
2023/05/01 10:30:07;;;;;;;9.97;8.97;;;18.60;91.40;;;;;;5078994;28;20477;-63
2023/05/01 10:32:36;;;;;;;11.17;10.07;;;18.50;90.90;;;;;;5100854;28;20578;-63
2023/05/01 10:35:06;;;;;;;14.90;9.70;;;18.50;91.70;;;;;;5078739;28;20601;-62
2023/05/01 10:37:38;;;;;;;11.47;9.43;;;18.60;92.80;;;;;;5072857;28;20486;-63
2023/05/01 10:40:42;;;;;;;9.13;8.23;;;19.00;91.30;;;;;;5082562;28;20485;-63
2023/05/01 10:43:24;;;;;;;12.73;9.03;;;19.00;91.10;;;;;;5071312;28;20906;-63
2023/05/01 10:45:52;;;;;;;11.33;8.47;;;19.10;89.70;;;;;;5080150;27;20569;-63
2023/05/01 10:48:56;;;;;;;11.60;10.07;;;19.20;90.10;;;;;;5085899;27;20485;-63
2023/05/01 10:51:24;;;;;;;13.80;11.27;;;19.40;90.70;;;;;;5073909;27;20957;-63
2023/05/01 10:54:24;;;;;;;13.57;9.47;;;19.40;88.10;;;;;;5096318;27;20833;-64
2023/05/01 10:56:51;;;;;;;11.03;9.83;;;19.50;89.80;;;;;;5086241;27;20477;-63
2023/05/01 10:59:19;;;;;;;10.43;8.43;;;19.70;90.50;;;;;;5081802;27;20931;-63
2023/05/01 11:01:47;;;;;;;11.30;9.03;;;19.80;89.70;;;;;;5120738;27;20987;-63
2023/05/01 11:04:52;;;;;;;13.70;10.20;;;19.60;87.80;;;;;;5078583;28;20482;-63
2023/05/01 11:07:19;;;;;;;10.57;9.53;;;;;;;;;;5070228;27;20517;-63
2023/05/01 11:09:48;;;;;;;9.63;8.63;;;20.00;90.90;;;;;;5096166;27;20451;-64
2023/05/01 11:12:15;;;;;;;12.33;11.03;;;20.10;90.10;;;;;;5076911;27;21025;-63
2023/05/01 11:15:11;;;;;;;12.47;9.50;;;20.30;90.00;;;;;;5074803;28;20701;-63
2023/05/01 11:17:48;;;;;;;12.97;11.60;;;20.50;90.80;;;;;;5037324;28;20515;-63
2023/05/01 11:21:00;;;;;;;10.40;9.30;;;20.50;88.10;;;;;;5080751;27;20499;-63
2023/05/01 11:23:27;;;;;;;17.97;13.90;;;20.60;90.10;;;;;;5100096;27;23498;-63
2023/05/01 11:26:07;;;;;;;8.67;7.77;;;20.70;89.50;;;;;;5079183;28;21123;-63
2023/05/01 11:28:34;;;;;;;15.70;10.70;;;20.50;86.00;;;;;;5092713;27;20461;-64
2023/05/01 11:31:02;;;;;;;10.53;8.97;;;20.50;88.60;;;;;;5090105;28;20880;-63
2023/05/01 11:33:29;;;;;;;15.33;12.60;;;20.50;88.50;;;;;;5074826;28;20481;-63
2023/05/01 11:36:02;;;;;;;11.73;8.10;;;20.30;89.60;;;;;;5081899;27;20472;-64
2023/05/01 11:38:29;;;;;;;17.60;12.73;;;20.30;90.40;;;;;;5094075;27;21092;-63
2023/05/01 11:41:01;;;;;;;10.30;9.23;;;20.20;90.20;;;;;;5095797;27;20488;-63
2023/05/01 11:43:27;;;;;;;13.90;9.90;;;20.20;88.30;;;;;;5094531;27;20511;-63
2023/05/01 11:46:02;;;;;;;9.80;8.63;;;20.10;87.80;;;;;;5077394;27;20477;-63
2023/05/01 11:48:31;;;;;;;15.17;9.80;;;20.20;88.40;;;;;;5102667;27;20546;-63
2023/05/01 11:50:58;;;;;;;11.40;10.30;;;20.20;90.40;;;;;;5062883;27;20789;-63
2023/05/01 11:53:24;;;;;;;14.70;10.93;;;20.00;89.70;;;;;;5094146;27;20504;-63
2023/05/01 11:55:51;;;;;;;11.53;8.40;;;20.00;91.30;;;;;;5089804;27;20482;-63
2023/05/01 11:58:18;;;;;;;12.40;10.63;;;20.10;90.50;;;;;;5085581;28;20997;-63
2023/05/01 12:00:44;;;;;;;77.40;12.67;;;20.20;90.80;;;;;;5099009;28;20532;-63
2023/05/01 12:03:13;;;;;;;21.83;11.73;;;20.20;90.40;;;;;;5080626;28;20482;-63
2023/05/01 12:05:42;;;;;;;11.70;9.17;;;20.40;90.80;;;;;;5093292;28;21051;-64
2023/05/01 12:08:11;;;;;;;11.10;9.80;;;20.30;90.00;;;;;;5073867;27;20485;-64
2023/05/01 12:10:39;;;;;;;16.73;9.27;;;20.50;91.90;;;;;;5084631;27;20544;-64
2023/05/01 12:13:07;;;;;;;11.23;9.03;;;;;;;;;;5081032;28;20595;-64
2023/05/01 12:15:36;;;;;;;14.70;11.47;;;20.40;90.20;;;;;;5080196;28;21052;-64
2023/05/01 12:18:03;;;;;;;17.47;11.83;;;20.40;90.30;;;;;;5087713;28;20482;-64
2023/05/01 12:20:38;;;;;;;14.83;10.20;;;20.20;87.90;;;;;;5071994;28;21033;-64
2023/05/01 12:23:07;;;;;;;28.27;10.47;;;20.00;89.40;;;;;;5082777;28;20480;-64
2023/05/01 12:25:34;;;;;;;14.87;11.87;;;20.10;91.10;;;;;;5071239;27;20528;-63
2023/05/01 12:28:03;;;;;;;12.33;9.93;;;20.00;90.80;;;;;;5093872;27;20492;-64
2023/05/01 12:30:30;;;;;;;13.47;9.07;;;20.40;89.40;;;;;;5083899;27;20474;-64
2023/05/01 12:32:57;;;;;;;13.47;10.63;;;20.50;88.30;;;;;;5081358;28;20954;-64
2023/05/01 12:35:29;;;;;;;15.10;12.43;;;20.80;90.10;;;;;;5067999;28;20485;-64
2023/05/01 12:37:57;;;;;;;10.27;7.53;;;20.80;87.90;;;;;;5065788;28;20570;-63
2023/05/01 12:40:26;;;;;;;13.90;12.07;;;21.00;87.20;;;;;;5078799;28;20539;-64
2023/05/01 12:42:57;;;;;;;7.67;6.87;;;20.90;85.00;;;;;;5082633;28;21169;-64